createdAt,value
2019-03-30T00:01:25.317Z,10.29
2019-03-30T00:03:56.139Z,10.34
2019-03-30T00:06:26.961Z,10.06
2019-03-30T00:08:57.669Z,10.44
2019-03-30T00:11:28.333Z,10.36
2019-03-30T00:13:59.106Z,10.13
2019-03-30T00:16:29.850Z,9.97
2019-03-30T00:19:00.533Z,9.84
2019-03-30T00:21:31.205Z,10.18
2019-03-30T00:24:01.909Z,9.64
2019-03-30T00:26:32.554Z,9.52
2019-03-30T00:29:08.986Z,10.00
2019-03-30T00:31:39.666Z,9.91
2019-03-30T00:34:10.298Z,9.77
2019-03-30T00:36:40.936Z,9.94
2019-03-30T00:39:11.608Z,10.00
2019-03-30T00:41:42.310Z,9.78
2019-03-30T00:44:13.012Z,9.90
2019-03-30T00:46:43.645Z,9.88
2019-03-30T00:49:14.381Z,9.55
2019-03-30T00:51:45.167Z,9.36
2019-03-30T00:54:15.840Z,9.38
2019-03-30T00:56:46.483Z,9.49
2019-03-30T00:59:17.162Z,9.30
2019-03-30T01:01:47.790Z,9.52
2019-03-30T01:04:18.500Z,9.16
2019-03-30T01:06:49.216Z,9.39
2019-03-30T01:09:20.206Z,9.35
2019-03-30T01:11:51.008Z,9.25
2019-03-30T01:14:21.875Z,9.46
2019-03-30T01:16:52.817Z,9.70
2019-03-30T01:19:23.755Z,9.14
2019-03-30T01:21:56.220Z,9.33
2019-03-30T01:24:27.462Z,9.19
2019-03-30T01:26:58.451Z,9.55
2019-03-30T01:29:29.298Z,9.46
2019-03-30T01:32:00.196Z,9.50
2019-03-30T01:34:30.832Z,9.26
2019-03-30T01:37:01.547Z,9.43
2019-03-30T01:39:32.299Z,9.43
2019-03-30T01:42:02.904Z,9.48
2019-03-30T01:44:33.633Z,9.46
2019-03-30T01:47:04.269Z,9.49
2019-03-30T01:49:34.982Z,9.29
2019-03-30T01:52:05.694Z,9.37
2019-03-30T01:54:36.521Z,9.16
2019-03-30T01:57:07.186Z,8.90
2019-03-30T01:59:37.908Z,8.71
2019-03-30T02:02:08.496Z,8.76
2019-03-30T02:04:39.155Z,8.86
2019-03-30T02:07:09.770Z,8.67
2019-03-30T02:09:40.423Z,8.52
2019-03-30T02:12:11.059Z,8.72
2019-03-30T02:14:41.662Z,8.58
2019-03-30T02:17:12.230Z,8.79
2019-03-30T02:19:42.995Z,8.59
2019-03-30T02:22:16.889Z,8.52
2019-03-30T02:24:47.626Z,8.64
2019-03-30T02:27:18.251Z,8.51
2019-03-30T02:29:48.871Z,8.83
2019-03-30T02:32:19.472Z,8.78
2019-03-30T02:34:50.152Z,7.84
2019-03-30T02:37:20.737Z,7.65
2019-03-30T02:39:51.386Z,7.76
2019-03-30T02:42:21.962Z,7.71
2019-03-30T02:44:52.590Z,7.99
2019-03-30T02:47:23.281Z,7.88
2019-03-30T02:49:54.021Z,7.92
2019-03-30T02:52:24.606Z,8.17
2019-03-30T02:54:55.418Z,7.97
2019-03-30T02:57:26.111Z,7.83
2019-03-30T02:59:56.956Z,8.00
2019-03-30T03:02:27.672Z,7.86
2019-03-30T03:04:58.420Z,8.21
2019-03-30T03:07:29.238Z,8.05
2019-03-30T03:09:59.918Z,8.25
2019-03-30T03:12:30.587Z,8.33
2019-03-30T03:15:02.728Z,7.84
2019-03-30T03:17:33.475Z,7.83
2019-03-30T03:20:04.173Z,7.71
2019-03-30T03:22:34.940Z,7.67
2019-03-30T03:25:06.039Z,7.52
2019-03-30T03:27:36.823Z,7.47
2019-03-30T03:30:08.796Z,7.96
2019-03-30T03:32:39.486Z,7.84
2019-03-30T03:35:10.286Z,8.20
2019-03-30T03:37:45.143Z,8.28
2019-03-30T03:40:13.519Z,7.82
2019-03-30T03:42:44.147Z,8.16
2019-03-30T03:45:14.871Z,8.09
2019-03-30T03:47:45.514Z,8.22
2019-03-30T03:50:36.613Z,8.13
2019-03-30T03:53:07.203Z,8.21
2019-03-30T03:55:38.436Z,8.15
2019-03-30T03:58:09.123Z,8.03
2019-03-30T04:00:40.085Z,8.16
2019-03-30T04:03:11.743Z,7.27
2019-03-30T04:05:45.286Z,7.45
2019-03-30T04:08:15.850Z,7.30
2019-03-30T04:10:50.265Z,7.47
2019-03-30T04:13:22.152Z,7.37
2019-03-30T04:15:52.885Z,7.64
2019-03-30T04:18:23.512Z,7.69
2019-03-30T04:20:54.162Z,7.66
2019-03-30T04:23:24.792Z,7.77
2019-03-30T04:25:55.469Z,7.68
2019-03-30T04:28:26.150Z,7.74
2019-03-30T04:30:56.812Z,7.80
2019-03-30T04:33:27.380Z,7.60
2019-03-30T04:35:57.993Z,7.71
2019-03-30T04:38:28.725Z,7.55
2019-03-30T04:40:59.302Z,7.52
2019-03-30T04:43:29.915Z,7.40
2019-03-30T04:46:00.619Z,7.56
2019-03-30T04:48:31.226Z,7.47
2019-03-30T04:51:01.809Z,7.67
2019-03-30T04:53:32.445Z,7.77
2019-03-30T04:56:03.035Z,7.46
2019-03-30T04:58:33.623Z,7.65
2019-03-30T05:01:04.246Z,7.60
2019-03-30T05:03:34.815Z,7.75
2019-03-30T05:06:05.415Z,7.28
2019-03-30T05:08:35.971Z,7.32
2019-03-30T05:11:06.618Z,7.17
2019-03-30T05:13:37.288Z,7.12
2019-03-30T05:16:07.917Z,7.13
2019-03-30T05:18:38.601Z,7.49
2019-03-30T05:21:09.219Z,7.51
2019-03-30T05:23:39.819Z,6.84
2019-03-30T05:26:10.523Z,7.15
2019-03-30T05:28:41.120Z,7.06
2019-03-30T05:31:11.737Z,6.75
2019-03-30T05:33:42.392Z,6.85
2019-03-30T05:36:16.069Z,6.77
2019-03-30T05:38:46.665Z,6.81
2019-03-30T05:41:17.385Z,6.61
2019-03-30T05:43:48.107Z,6.62
2019-03-30T05:46:18.765Z,6.74
2019-03-30T05:48:49.336Z,6.67
2019-03-30T05:51:19.891Z,6.86
2019-03-30T05:53:50.425Z,6.97
2019-03-30T05:56:21.011Z,6.73
2019-03-30T05:58:51.551Z,6.85
2019-03-30T06:01:22.163Z,7.29
2019-03-30T06:03:52.737Z,7.38
2019-03-30T06:06:23.975Z,7.40
2019-03-30T06:08:54.563Z,7.54
2019-03-30T06:11:25.147Z,7.56
2019-03-30T06:13:55.718Z,7.41
2019-03-30T06:16:26.297Z,7.63
2019-03-30T06:18:57.001Z,7.70
2019-03-30T06:21:27.562Z,7.59
2019-03-30T06:23:58.106Z,7.76
2019-03-30T06:26:28.722Z,7.83
2019-03-30T06:28:59.252Z,7.89
2019-03-30T06:31:29.870Z,7.78
2019-03-30T06:34:00.436Z,7.87
2019-03-30T06:36:31.024Z,7.98
2019-03-30T06:39:01.585Z,7.91
2019-03-30T06:41:32.167Z,8.05
2019-03-30T06:44:02.737Z,8.13
2019-03-30T06:46:33.311Z,8.17
2019-03-30T06:49:04.004Z,8.07
2019-03-30T06:51:34.575Z,8.15
2019-03-30T06:54:05.208Z,8.23
2019-03-30T06:56:35.805Z,8.18
2019-03-30T06:59:06.427Z,8.34
2019-03-30T07:01:37.035Z,8.36
2019-03-30T07:04:11.055Z,8.44
2019-03-30T07:06:40.577Z,8.46
2019-03-30T07:09:11.144Z,8.49
2019-03-30T07:11:43.810Z,8.52
2019-03-30T07:14:14.479Z,8.54
2019-03-30T07:16:45.656Z,8.52
2019-03-30T07:19:16.929Z,8.59
2019-03-30T07:21:47.570Z,8.59
2019-03-30T07:24:19.868Z,8.61
2019-03-30T07:26:50.446Z,8.77
2019-03-30T07:29:21.144Z,8.77
2019-03-30T07:31:51.778Z,8.80
2019-03-30T07:34:22.356Z,8.82
2019-03-30T07:36:52.966Z,8.88
2019-03-30T07:39:26.606Z,8.92
2019-03-30T07:41:57.256Z,8.84
2019-03-30T07:44:27.936Z,8.99
2019-03-30T07:46:58.534Z,9.06
2019-03-30T07:49:29.168Z,9.10
2019-03-30T07:51:59.856Z,9.26
2019-03-30T07:54:30.470Z,9.35
2019-03-30T07:57:06.199Z,9.37
2019-03-30T07:59:33.389Z,9.57
2019-03-30T08:02:03.996Z,9.55
2019-03-30T08:04:34.635Z,9.66
2019-03-30T08:07:05.772Z,9.78
2019-03-30T08:09:37.324Z,9.75
2019-03-30T08:12:08.037Z,9.98
2019-03-30T08:14:38.644Z,9.98
2019-03-30T08:17:09.268Z,9.93
2019-03-30T08:19:39.883Z,10.11
2019-03-30T08:22:10.502Z,10.21
2019-03-30T08:24:41.101Z,10.37
2019-03-30T08:27:11.978Z,10.64
2019-03-30T08:29:44.938Z,10.71
2019-03-30T08:32:15.598Z,10.59
2019-03-30T08:34:46.207Z,10.85
2019-03-30T08:37:18.553Z,10.96
2019-03-30T08:39:49.344Z,10.99
2019-03-30T08:42:20.614Z,11.10
2019-03-30T08:44:51.230Z,11.51
2019-03-30T08:47:21.857Z,11.68
2019-03-30T08:49:52.497Z,11.95
2019-03-30T08:52:23.135Z,11.78
2019-03-30T08:54:53.906Z,12.12
2019-03-30T08:57:24.560Z,11.95
2019-03-30T08:59:55.566Z,12.19
2019-03-30T09:02:26.190Z,12.23
2019-03-30T09:04:56.786Z,12.21
2019-03-30T09:07:27.413Z,12.24
2019-03-30T09:09:58.139Z,11.79
2019-03-30T09:12:28.739Z,12.31
2019-03-30T09:14:59.353Z,12.31
2019-03-30T09:17:29.947Z,12.36
2019-03-30T09:20:00.722Z,12.53
2019-03-30T09:22:31.297Z,12.75
2019-03-30T09:25:03.129Z,12.76
2019-03-30T09:27:33.755Z,12.81
2019-03-30T09:30:05.937Z,13.17
2019-03-30T09:32:36.544Z,12.94
2019-03-30T09:35:07.370Z,13.05
2019-03-30T09:37:37.959Z,13.32
2019-03-30T09:40:08.947Z,13.32
2019-03-30T09:42:39.517Z,13.41
2019-03-30T09:45:10.234Z,13.51
2019-03-30T09:47:40.835Z,13.51
2019-03-30T09:50:11.453Z,13.40
2019-03-30T09:52:42.073Z,13.77
2019-03-30T09:55:12.725Z,13.98
2019-03-30T09:57:43.325Z,13.98
2019-03-30T10:00:14.083Z,13.79
2019-03-30T10:02:44.669Z,13.86
2019-03-30T10:05:15.278Z,13.98
2019-03-30T10:07:45.849Z,14.26
2019-03-30T10:10:16.485Z,13.94
2019-03-30T10:12:47.051Z,13.94
2019-03-30T10:15:17.669Z,14.26
2019-03-30T10:17:48.282Z,14.16
2019-03-30T10:20:18.878Z,14.14
2019-03-30T10:22:49.454Z,14.34
2019-03-30T10:25:20.068Z,14.36
2019-03-30T10:27:50.649Z,14.15
2019-03-30T10:30:21.272Z,14.35
2019-03-30T10:32:51.835Z,14.16
2019-03-30T10:35:22.424Z,14.27
2019-03-30T10:37:53.022Z,14.53
2019-03-30T10:40:23.656Z,14.86
2019-03-30T10:42:54.198Z,14.66
2019-03-30T10:45:24.798Z,14.56
2019-03-30T10:47:55.375Z,14.71
2019-03-30T10:50:26.033Z,14.69
2019-03-30T10:52:56.601Z,14.76
2019-03-30T10:55:27.211Z,14.78
2019-03-30T10:57:58.743Z,14.99
2019-03-30T11:00:40.989Z,15.31
2019-03-30T11:03:11.533Z,15.41
2019-03-30T11:05:42.159Z,15.48
2019-03-30T11:08:12.723Z,15.39
2019-03-30T11:10:43.339Z,15.22
2019-03-30T11:13:14.009Z,15.55
2019-03-30T11:15:44.696Z,15.47
2019-03-30T11:18:15.246Z,15.26
2019-03-30T11:21:07.845Z,15.65
2019-03-30T11:23:38.543Z,15.78
2019-03-30T11:26:10.120Z,15.46
2019-03-30T11:28:42.197Z,15.64
2019-03-30T11:31:13.150Z,16.01
2019-03-30T11:33:43.725Z,15.73
2019-03-30T11:36:14.424Z,15.82
2019-03-30T11:38:45.011Z,15.70
2019-03-30T11:41:15.619Z,15.90
2019-03-30T11:43:46.183Z,15.76
2019-03-30T11:46:16.799Z,15.73
2019-03-30T11:48:47.419Z,15.70
2019-03-30T11:51:17.999Z,15.74
2019-03-30T11:53:48.762Z,16.00
2019-03-30T11:56:19.481Z,16.04
2019-03-30T11:58:50.753Z,16.26
2019-03-30T12:01:21.882Z,16.11
2019-03-30T12:03:52.591Z,16.02
2019-03-30T12:06:23.173Z,15.82
2019-03-30T12:08:53.733Z,16.60
2019-03-30T12:11:24.334Z,16.50
2019-03-30T12:13:57.222Z,16.42
2019-03-30T12:16:27.803Z,16.32
2019-03-30T12:18:58.521Z,16.02
2019-03-30T12:22:45.837Z,16.35
2019-03-30T12:25:18.093Z,16.31
2019-03-30T12:27:48.684Z,16.37
2019-03-30T12:30:19.241Z,16.24
2019-03-30T12:32:49.822Z,16.17
2019-03-30T12:35:20.385Z,16.30
2019-03-30T12:37:50.969Z,16.32
2019-03-30T12:40:21.531Z,16.47
2019-03-30T12:42:52.126Z,16.43
2019-03-30T12:45:22.741Z,16.43
2019-03-30T12:47:53.313Z,16.58
2019-03-30T12:50:23.858Z,16.57
2019-03-30T12:52:54.464Z,16.69
2019-03-30T12:55:25.064Z,16.67
2019-03-30T12:57:55.650Z,16.66
2019-03-30T13:00:26.205Z,16.72
2019-03-30T13:02:56.769Z,16.99
2019-03-30T13:05:27.322Z,16.99
2019-03-30T13:07:57.904Z,17.00
2019-03-30T13:10:28.459Z,17.07
2019-03-30T13:12:59.039Z,17.07
2019-03-30T13:15:29.596Z,16.80
2019-03-30T13:18:00.174Z,17.09
2019-03-30T13:20:30.724Z,17.00
2019-03-30T13:23:01.328Z,16.99
2019-03-30T13:25:31.894Z,17.29
2019-03-30T13:28:02.478Z,17.14
2019-03-30T13:30:33.049Z,17.07
2019-03-30T13:33:03.633Z,16.97
2019-03-30T13:35:34.218Z,17.02
2019-03-30T13:38:04.799Z,17.33
2019-03-30T13:40:35.384Z,17.16
2019-03-30T13:43:06.422Z,17.42
2019-03-30T13:45:36.993Z,17.68
2019-03-30T13:48:09.428Z,17.48
2019-03-30T13:50:40.003Z,17.46
2019-03-30T13:53:10.579Z,17.56
2019-03-30T13:55:41.112Z,17.69
2019-03-30T13:58:11.715Z,17.45
2019-03-30T14:00:42.272Z,17.56
2019-03-30T14:03:12.837Z,17.56
2019-03-30T14:05:43.931Z,17.43
2019-03-30T14:08:14.510Z,17.52
2019-03-30T14:10:45.103Z,17.66
2019-03-30T14:13:22.948Z,17.74
2019-03-30T14:15:53.605Z,17.71
2019-03-30T14:18:24.264Z,17.71
2019-03-30T14:20:54.785Z,17.60
2019-03-30T14:23:25.376Z,17.83
2019-03-30T14:25:55.940Z,17.65
2019-03-30T14:28:26.517Z,17.76
2019-03-30T14:30:57.063Z,17.82
2019-03-30T14:33:27.684Z,17.68
2019-03-30T14:35:58.263Z,17.75
2019-03-30T14:38:28.869Z,17.68
2019-03-30T14:40:59.423Z,18.13
2019-03-30T14:43:30.041Z,17.83
2019-03-30T14:46:00.615Z,17.88
2019-03-30T14:48:31.238Z,17.96
2019-03-30T14:51:01.808Z,17.87
2019-03-30T14:53:32.400Z,18.08
2019-03-30T14:56:03.045Z,18.05
2019-03-30T14:58:33.692Z,17.96
2019-03-30T15:01:04.224Z,18.14
2019-03-30T15:03:34.843Z,17.99
2019-03-30T15:06:07.021Z,18.03
2019-03-30T15:08:37.812Z,18.25
2019-03-30T15:11:08.389Z,18.38
2019-03-30T15:13:38.992Z,18.16
2019-03-30T15:16:09.565Z,18.01
2019-03-30T15:18:40.148Z,18.02
2019-03-30T15:21:10.731Z,17.79
2019-03-30T15:23:41.332Z,17.77
2019-03-30T15:26:11.891Z,17.61
2019-03-30T15:28:42.909Z,17.58
2019-03-30T15:31:13.605Z,17.67
2019-03-30T15:33:44.221Z,17.85
2019-03-30T15:36:14.794Z,17.87
2019-03-30T15:38:45.370Z,17.73
2019-03-30T15:41:17.085Z,17.79
2019-03-30T15:43:47.713Z,17.58
2019-03-30T15:46:29.031Z,17.67
2019-03-30T15:49:00.903Z,17.79
2019-03-30T15:51:32.113Z,17.92
2019-03-30T15:54:09.120Z,18.01
2019-03-30T15:56:39.959Z,18.03
2019-03-30T15:59:10.536Z,18.10
2019-03-30T16:01:41.164Z,18.16
2019-03-30T16:04:11.763Z,18.11
2019-03-30T16:06:42.358Z,18.11
2019-03-30T16:09:12.928Z,18.10
2019-03-30T16:11:43.599Z,18.03
2019-03-30T16:14:14.176Z,17.98
2019-03-30T16:16:44.762Z,18.04
2019-03-30T16:19:15.326Z,17.99
2019-03-30T16:21:49.470Z,17.98
2019-03-30T16:24:18.214Z,18.00
2019-03-30T16:26:48.797Z,18.11
2019-03-30T16:29:19.362Z,18.13
2019-03-30T16:31:49.971Z,17.99
2019-03-30T16:34:20.548Z,18.01
2019-03-30T16:36:51.141Z,17.89
2019-03-30T16:39:21.709Z,17.97
2019-03-30T16:41:52.320Z,17.73
2019-03-30T16:44:22.847Z,17.70
2019-03-30T16:46:53.452Z,17.61
2019-03-30T16:49:24.081Z,17.58
2019-03-30T16:51:54.726Z,17.57
2019-03-30T16:54:25.344Z,17.56
2019-03-30T16:56:55.934Z,17.53
2019-03-30T16:59:26.538Z,17.57
2019-03-30T17:01:57.073Z,17.54
2019-03-30T17:04:29.554Z,17.51
2019-03-30T17:07:00.021Z,17.59
2019-03-30T17:09:30.623Z,17.54
2019-03-30T17:12:02.978Z,17.60
2019-03-30T17:14:33.530Z,17.46
2019-03-30T17:17:04.148Z,17.49
2019-03-30T17:19:34.787Z,17.50
2019-03-30T17:22:05.390Z,17.53
2019-03-30T17:24:35.944Z,17.36
2019-03-30T17:27:06.512Z,17.42
2019-03-30T17:29:37.087Z,17.32
2019-03-30T17:32:07.674Z,17.29
2019-03-30T17:34:38.250Z,17.21
2019-03-30T17:37:08.868Z,17.18
2019-03-30T17:39:39.423Z,17.13
2019-03-30T17:42:10.204Z,17.09
2019-03-30T17:44:40.754Z,17.12
2019-03-30T17:47:11.376Z,17.01
2019-03-30T17:49:41.965Z,17.01
2019-03-30T17:52:12.629Z,16.99
2019-03-30T17:54:43.250Z,16.88
2019-03-30T17:57:17.332Z,16.87
2019-03-30T17:59:46.198Z,16.79
2019-03-30T18:02:17.208Z,16.82
2019-03-30T18:04:47.816Z,16.78
2019-03-30T18:07:18.381Z,16.72
2019-03-30T18:09:48.970Z,16.70
2019-03-30T18:12:20.566Z,16.54
2019-03-30T18:14:51.322Z,16.46
2019-03-30T18:17:21.918Z,16.44
2019-03-30T18:19:52.487Z,16.37
2019-03-30T18:22:23.104Z,16.20
2019-03-30T18:24:53.673Z,16.05
2019-03-30T18:27:24.913Z,15.94
2019-03-30T18:29:55.511Z,16.09
2019-03-30T18:32:26.734Z,16.09
2019-03-30T18:34:57.591Z,16.06
2019-03-30T18:37:29.724Z,15.95
2019-03-30T18:40:03.595Z,16.06
2019-03-30T18:42:34.285Z,15.99
2019-03-30T18:45:06.416Z,16.02
2019-03-30T18:47:37.014Z,16.10
2019-03-30T18:50:08.198Z,16.04
2019-03-30T18:52:38.808Z,15.82
2019-03-30T18:55:11.007Z,15.76
2019-03-30T18:57:41.588Z,15.85
2019-03-30T19:00:15.527Z,15.71
2019-03-30T19:02:46.125Z,15.85
2019-03-30T19:05:16.839Z,15.69
2019-03-30T19:07:47.417Z,15.58
2019-03-30T19:10:20.926Z,15.47
2019-03-30T19:12:51.512Z,15.64
2019-03-30T19:15:22.218Z,15.36
2019-03-30T19:17:52.823Z,15.58
2019-03-30T19:20:23.410Z,15.61
2019-03-30T19:22:53.981Z,15.41
2019-03-30T19:25:24.577Z,15.36
2019-03-30T19:27:55.229Z,15.44
2019-03-30T19:30:25.893Z,15.29
2019-03-30T19:32:56.564Z,15.36
2019-03-30T19:35:27.223Z,15.34
2019-03-30T19:37:57.755Z,15.49
2019-03-30T19:40:28.432Z,15.38
2019-03-30T19:42:58.997Z,15.53
2019-03-30T19:45:29.955Z,15.42
2019-03-30T19:48:00.524Z,15.34
2019-03-30T19:50:31.205Z,15.15
2019-03-30T19:53:01.777Z,15.22
2019-03-30T19:55:32.475Z,15.13
2019-03-30T19:58:03.065Z,15.18
2019-03-30T20:00:34.179Z,15.17
2019-03-30T20:03:04.785Z,15.21
2019-03-30T20:05:35.953Z,15.30
2019-03-30T20:08:12.401Z,15.02
2019-03-30T20:10:38.843Z,15.04
2019-03-30T20:13:09.885Z,14.94
2019-03-30T20:15:40.504Z,15.11
2019-03-30T20:18:11.141Z,15.01
2019-03-30T20:20:42.202Z,15.09
2019-03-30T20:23:12.761Z,15.17
2019-03-30T20:25:43.426Z,15.05
2019-03-30T20:28:14.000Z,14.71
2019-03-30T20:30:44.614Z,14.97
2019-03-30T20:33:15.205Z,14.63
2019-03-30T20:35:45.830Z,14.75
2019-03-30T20:38:16.425Z,14.86
2019-03-30T20:40:47.057Z,14.81
2019-03-30T20:43:17.627Z,14.94
2019-03-30T20:45:48.233Z,15.03
2019-03-30T20:48:18.827Z,14.81
2019-03-30T20:50:49.487Z,14.88
2019-03-30T20:53:20.079Z,14.82
2019-03-30T20:55:50.733Z,14.78
2019-03-30T20:58:21.359Z,14.64
2019-03-30T21:00:51.962Z,14.39
2019-03-30T21:03:22.568Z,14.31
2019-03-30T21:05:53.251Z,14.49
2019-03-30T21:08:23.901Z,14.41
2019-03-30T21:10:54.540Z,14.35
2019-03-30T21:13:25.123Z,14.25
2019-03-30T21:15:55.719Z,14.18
2019-03-30T21:18:26.299Z,13.79
2019-03-30T21:20:56.993Z,14.01
2019-03-30T21:23:27.563Z,13.99
2019-03-30T21:25:58.159Z,13.75
2019-03-30T21:28:28.776Z,13.97
2019-03-30T21:30:59.381Z,14.04
2019-03-30T21:33:29.936Z,13.79
2019-03-30T21:36:01.294Z,13.96
2019-03-30T21:38:31.982Z,13.61
2019-03-30T21:41:02.552Z,13.92
2019-03-30T21:43:33.114Z,13.74
2019-03-30T21:46:03.678Z,13.65
2019-03-30T21:48:34.260Z,13.71
2019-03-30T21:51:04.951Z,13.45
2019-03-30T21:53:35.520Z,13.46
2019-03-30T21:56:06.177Z,13.48
2019-03-30T21:58:36.729Z,13.52
2019-03-30T22:01:07.327Z,13.49
2019-03-30T22:03:37.955Z,13.32
2019-03-30T22:06:08.704Z,13.41
2019-03-30T22:08:39.679Z,13.39
2019-03-30T22:11:10.400Z,13.52
2019-03-30T22:13:40.981Z,13.40
2019-03-30T22:16:11.593Z,13.34
2019-03-30T22:18:42.186Z,13.39
2019-03-30T22:21:12.795Z,13.42
2019-03-30T22:23:43.346Z,13.34
2019-03-30T22:26:13.933Z,13.25
2019-03-30T22:28:44.541Z,13.41
2019-03-30T22:31:15.107Z,13.15
2019-03-30T22:33:45.734Z,12.93
2019-03-30T22:36:24.015Z,12.78
2019-03-30T22:38:54.610Z,12.91
2019-03-30T22:41:25.172Z,12.60
2019-03-30T22:43:55.822Z,12.71
2019-03-30T22:46:26.367Z,12.67
2019-03-30T22:48:56.931Z,12.68
2019-03-30T22:51:27.584Z,12.54
2019-03-30T22:53:58.172Z,12.51
2019-03-30T22:56:28.803Z,12.65
2019-03-30T22:58:59.407Z,12.80
2019-03-30T23:01:29.971Z,12.66
2019-03-30T23:04:00.613Z,12.51
2019-03-30T23:06:31.238Z,12.36
2019-03-30T23:09:01.884Z,12.44
2019-03-30T23:11:33.129Z,12.55
2019-03-30T23:14:03.770Z,12.10
2019-03-30T23:16:34.389Z,12.29
2019-03-30T23:19:04.995Z,12.17
2019-03-30T23:21:35.590Z,12.30
2019-03-30T23:24:06.172Z,12.28
2019-03-30T23:26:36.922Z,11.92
2019-03-30T23:29:07.588Z,11.92
2019-03-30T23:31:38.198Z,12.29
2019-03-30T23:34:08.818Z,12.09
2019-03-30T23:36:39.388Z,12.05
2019-03-30T23:39:10.097Z,12.10
2019-03-30T23:41:41.270Z,12.02
2019-03-30T23:44:11.878Z,12.02
2019-03-30T23:46:42.517Z,12.13
2019-03-30T23:49:13.234Z,12.01
2019-03-30T23:51:43.877Z,11.81
2019-03-30T23:54:16.353Z,11.81
2019-03-30T23:56:46.941Z,11.76
2019-03-30T23:59:17.758Z,11.85
